Time;durP1;ratioP1;P1;durP2;ratioP2;P2;SDS_P1;SDS_P2;PMS_P1;PMS_P2;Temp;Humidity;BMP_temperature;BMP_pressure;BME280_temperature;BME280_humidity;BME280_pressure;Samples;Min_cycle;Max_cycle;Signal;HPM_P1;HPM_P2
2021/12/16 00:09:59;;;;;;;;;40.50;34.75;;;;;12.57;65.01;103214.84;5976221;23;45507;-85
2021/12/16 00:31:31;;;;;;;;;48.00;40.50;;;;;12.21;64.68;103166.22;5975639;23;45455;-85
2021/12/16 00:34:01;;;;;;;;;49.25;38.75;;;;;12.31;64.44;103187.50;5976877;23;45508;-86
2021/12/16 00:36:34;;;;;;;;;46.50;39.00;;;;;12.60;64.44;103236.19;5975598;23;45504;-86
2021/12/16 00:39:03;;;;;;;;;43.75;37.75;;;;;12.60;64.38;103238.88;6059531;23;45429;-86
2021/12/16 00:41:29;;;;;;;;;44.00;36.00;;;;;12.44;64.69;103202.50;6067464;23;45258;-86
2021/12/16 00:44:04;;;;;;;;;44.75;37.00;;;;;12.61;64.64;103229.06;6094077;23;45407;-86
2021/12/16 00:54:14;;;;;;;;;46.75;37.75;;;;;12.22;64.57;103177.78;6095014;23;45334;-85
2021/12/16 00:56:56;;;;;;;;;49.00;39.25;;;;;12.41;65.03;103210.59;6094907;23;46442;-86
2021/12/16 00:59:24;;;;;;;;;46.50;38.75;;;;;12.58;64.68;103231.78;6095497;23;45333;-85
2021/12/16 01:02:35;;;;;;;;;39.75;34.75;;;;;12.34;64.75;103188.38;6094405;23;45468;-86
2021/12/16 01:35:16;;;;;;;;;43.25;35.25;;;;;12.38;65.33;103216.81;6094235;23;45322;-86
2021/12/16 01:46:08;;;;;;;;;41.75;36.00;;;;;12.38;64.91;103216.81;6094671;23;45251;-85
2021/12/16 01:51:14;;;;;;;;;41.00;36.00;;;;;12.46;65.52;103231.00;6092163;23;46006;-85
2021/12/16 01:58:43;;;;;;;;;40.75;34.00;;;;;12.28;65.46;103200.91;6095267;23;45516;-86
2021/12/16 02:01:28;;;;;;;;;45.00;38.00;;;;;12.48;65.49;103230.09;6095208;23;45341;-86
2021/12/16 02:04:00;;;;;;;;;39.50;35.00;;;;;12.34;65.50;103223.13;6094055;23;45371;-85
2021/12/16 02:09:19;;;;;;;;;37.25;34.25;;;;;12.36;65.33;103234.69;6095192;23;45348;-85
2021/12/16 02:28:33;;;;;;;;;45.00;36.75;;;;;12.45;65.16;103252.41;6095061;23;45377;-85
2021/12/16 02:36:01;;;;;;;;;42.75;36.50;;;;;12.46;65.44;103254.19;6094113;23;45353;-85
2021/12/16 02:38:31;;;;;;;;;45.00;36.50;;;;;12.17;65.41;103209.91;6095081;23;45267;-85
2021/12/16 02:40:57;;;;;;;;;44.00;36.25;;;;;12.45;65.57;103249.72;6068546;23;45430;-85
2021/12/16 02:48:36;;;;;;;;;45.75;35.50;;;;;12.08;65.29;103180.66;6095207;23;45300;-85
2021/12/16 02:51:04;;;;;;;;;45.75;36.25;;;;;12.48;65.49;103251.50;6093996;23;45551;-85
2021/12/16 02:53:30;;;;;;;;;43.00;36.75;;;;;12.49;65.27;103250.59;6094581;23;46576;-86
2021/12/16 02:55:56;;;;;;;;;44.50;36.25;;;;;12.47;65.51;103253.28;6094468;23;45480;-85
2021/12/16 02:58:22;;;;;;;;;45.25;36.25;;;;;12.41;65.69;103248.03;6094533;23;45423;-85
2021/12/16 03:00:56;;;;;;;;;43.50;36.50;;;;;12.39;65.38;103233.78;6094786;23;45462;-85
2021/12/16 03:03:21;;;;;;;;;40.00;35.25;;;;;12.21;65.43;103202.78;6093680;23;46012;-85
2021/12/16 03:05:47;;;;;;;;;37.75;34.75;;;;;12.35;65.78;103230.25;6094311;23;45320;-85
2021/12/16 03:08:14;;;;;;;;;47.00;37.25;;;;;12.39;65.50;103237.34;6095128;23;45382;-86
2021/12/16 03:13:24;;;;;;;;;45.25;37.00;;;;;12.37;65.13;103244.47;6094517;23;45303;-85
2021/12/16 03:16:21;;;;;;;;;38.50;34.00;;;;;12.44;65.62;103254.22;6067814;23;45315;-85
2021/12/16 03:19:04;;;;;;;;;45.00;37.50;;;;;12.46;65.32;103257.75;6092751;23;45378;-85
2021/12/16 03:21:35;;;;;;;;;40.50;34.75;;;;;12.39;65.39;103245.34;6095302;23;45236;-85
2021/12/16 03:27:32;;;;;;;;;45.00;35.50;;;;;12.41;65.42;103258.72;6032994;23;45470;-85
2021/12/16 03:35:14;;;;;;;;;42.50;34.75;;;;;11.95;65.42;103182.53;6034114;23;45963;-85
2021/12/16 03:37:40;;;;;;;;;44.50;35.50;;;;;12.43;65.50;103254.22;6034040;23;45189;-85
2021/12/16 03:40:12;;;;;;;;;45.50;35.50;;;;;12.42;65.83;103253.34;6032638;23;45233;-85
2021/12/16 03:42:42;;;;;;;;;43.75;33.00;;;;;12.42;65.51;103255.13;6034669;23;45676;-85
2021/12/16 03:48:40;;;;;;;;;46.50;36.25;;;;;12.41;65.41;103250.69;6004165;23;45396;-85
2021/12/16 03:51:12;;;;;;;;;45.50;37.25;;;;;12.08;65.91;103201.13;5998551;23;45684;-85
2021/12/16 03:53:38;;;;;;;;;44.50;33.75;;;;;12.21;65.54;103213.47;6005488;23;45398;-85
2021/12/16 03:56:05;;;;;;;;;47.50;38.25;;;;;12.26;65.80;103227.66;6003882;23;45574;-85
2021/12/16 03:58:31;;;;;;;;;47.75;36.00;;;;;12.42;65.33;103252.47;5981265;23;45237;-85
2021/12/16 04:01:01;;;;;;;;;38.50;34.50;;;;;12.42;65.49;103256.00;6005065;23;45373;-85
2021/12/16 04:03:27;;;;;;;;;35.50;29.75;;;;;12.10;65.65;103199.31;6015104;23;45325;-85
2021/12/16 04:05:53;;;;;;;;;40.00;35.75;;;;;12.36;65.27;103248.06;6033766;23;45416;-85
2021/12/16 04:08:19;;;;;;;;;41.50;34.75;;;;;12.41;65.39;103258.72;6033777;23;45240;-85
2021/12/16 04:10:52;;;;;;;;;45.25;38.00;;;;;12.37;65.44;103257.84;6034065;23;45387;-85
2021/12/16 04:13:19;;;;;;;;;47.25;37.00;;;;;12.33;65.76;103261.47;6008787;23;45396;-85
2021/12/16 04:15:46;;;;;;;;;44.75;37.00;;;;;12.15;65.71;103221.53;6008255;23;46577;-85
2021/12/16 04:18:12;;;;;;;;;47.75;39.25;;;;;12.28;65.82;103247.25;6032964;23;45487;-85
2021/12/16 04:20:38;;;;;;;;;44.25;36.00;;;;;12.25;66.06;103231.25;6033808;23;45790;-85
2021/12/16 04:23:08;;;;;;;;;47.00;38.25;;;;;12.06;65.96;103197.56;6083150;23;45432;-85
2021/12/16 04:25:38;;;;;;;;;44.75;36.00;;;;;12.22;65.74;103225.91;6094538;23;45369;-85
2021/12/16 04:28:10;;;;;;;;;47.50;38.25;;;;;12.40;66.15;103267.63;6093602;23;45390;-85
2021/12/16 04:30:35;;;;;;;;;42.25;36.00;;;;;12.38;66.09;103256.94;6095173;23;45675;-85
2021/12/16 04:33:00;;;;;;;;;48.25;39.00;;;;;12.33;66.08;103255.22;6095392;23;45585;-85
2021/12/16 04:35:26;;;;;;;;;45.00;38.00;;;;;12.20;66.09;103233.09;6095391;23;45377;-85
2021/12/16 04:37:52;;;;;;;;;45.25;35.50;;;;;12.40;66.19;103270.31;6095179;23;45186;-85
2021/12/16 04:40:18;;;;;;;;;43.75;35.25;;;;;12.40;65.88;103264.97;6095173;23;45331;-85
2021/12/16 04:42:46;;;;;;;;;44.50;35.50;;;;;12.24;66.18;103241.06;6095552;23;45294;-85
2021/12/16 04:45:18;;;;;;;;;45.00;37.25;;;;;12.41;66.17;103269.41;6094932;23;46083;-85
2021/12/16 04:47:44;;;;;;;;;39.50;33.25;;;;;12.31;66.25;103246.34;6094795;23;45374;-85
2021/12/16 04:50:12;;;;;;;;;41.75;35.00;;;;;12.43;66.10;103271.19;6094955;23;45256;-85
2021/12/16 04:52:38;;;;;;;;;44.25;35.50;;;;;12.40;66.34;103270.31;6096441;23;45747;-85
2021/12/16 04:55:06;;;;;;;;;45.00;36.50;;;;;12.16;65.93;103223.31;6069227;23;46285;-85
2021/12/16 04:57:32;;;;;;;;;44.75;37.50;;;;;12.44;66.21;103270.25;6094541;23;45399;-85
2021/12/16 04:59:57;;;;;;;;;40.50;35.00;;;;;12.28;66.15;103257.06;6095310;23;45375;-85
2021/12/16 05:02:25;;;;;;;;;40.75;35.25;;;;;12.43;66.19;103279.19;6094419;23;45374;-85
2021/12/16 05:04:50;;;;;;;;;43.75;36.50;;;;;12.44;66.19;103282.75;6095041;23;45371;-85
2021/12/16 05:07:17;;;;;;;;;45.00;37.00;;;;;12.19;66.14;103237.53;6095499;23;45269;-85
2021/12/16 05:12:15;;;;;;;;;48.75;37.25;;;;;12.24;66.30;103254.44;6094775;23;45279;-85
2021/12/16 05:14:42;;;;;;;;;47.75;37.50;;;;;12.39;66.31;103271.22;6094977;23;46707;-85
2021/12/16 05:17:20;;;;;;;;;43.50;36.75;;;;;12.30;66.24;103258.81;6095028;23;45382;-85
2021/12/16 05:19:49;;;;;;;;;42.75;35.75;;;;;12.21;65.67;103249.09;6068850;23;45304;-85
2021/12/16 05:24:59;;;;;;;;;40.00;35.50;;;;;12.27;66.16;103256.19;6094910;23;45426;-85
2021/12/16 05:27:24;;;;;;;;;44.25;37.00;;;;;12.39;66.34;103277.44;6094241;23;45353;-85
2021/12/16 05:29:50;;;;;;;;;44.75;38.00;;;;;12.22;66.23;103252.66;6095312;23;45395;-85
2021/12/16 05:32:15;;;;;;;;;44.50;36.25;;;;;12.27;66.05;103268.66;6094729;23;45300;-85
2021/12/16 05:34:40;;;;;;;;;49.25;38.00;;;;;12.29;66.48;103269.53;6094970;23;45741;-85
2021/12/16 05:37:08;;;;;;;;;43.50;36.50;;;;;12.43;66.19;103291.66;6068772;23;45386;-85
2021/12/16 05:39:33;;;;;;;;;46.00;37.50;;;;;12.43;66.44;103297.00;6094711;23;45445;-85
2021/12/16 05:41:59;;;;;;;;;48.00;39.25;;;;;12.07;66.36;103239.47;6094685;23;45416;-84
2021/12/16 05:44:24;;;;;;;;;44.75;37.25;;;;;12.42;66.74;103303.28;6068725;23;47773;-85
2021/12/16 05:46:50;;;;;;;;;49.50;38.00;;;;;12.40;66.49;103303.28;6095287;23;45390;-85
2021/12/16 05:49:15;;;;;;;;;44.25;37.50;;;;;12.06;66.53;103249.28;6095380;23;45372;-85
2021/12/16 05:51:44;;;;;;;;;47.75;38.00;;;;;12.34;66.25;103314.06;6094551;23;45234;-85
2021/12/16 05:54:11;;;;;;;;;45.00;37.75;;;;;12.41;66.64;103304.19;6068256;23;47501;-87
2021/12/16 05:56:38;;;;;;;;;48.00;39.00;;;;;12.35;66.58;103290.88;6093913;23;45351;-87
2021/12/16 05:59:05;;;;;;;;;49.25;40.00;;;;;12.05;66.79;103244.81;6094654;23;45255;-86
2021/12/16 06:01:35;;;;;;;;;46.75;37.00;;;;;12.40;66.50;103313.97;6094187;23;45421;-86
2021/12/16 06:04:01;;;;;;;;;49.75;38.50;;;;;12.36;66.61;103308.69;6094729;23;45323;-87
2021/12/16 06:06:27;;;;;;;;;44.75;36.25;;;;;12.42;66.52;103322.00;6094544;23;45382;-86
2021/12/16 06:08:54;;;;;;;;;47.25;38.50;;;;;12.24;66.51;103290.97;6094899;23;45221;-86
2021/12/16 06:11:23;;;;;;;;;47.50;37.50;;;;;12.42;66.31;103328.22;6094897;23;45160;-86
2021/12/16 06:14:04;;;;;;;;;46.50;39.00;;;;;12.40;66.50;103318.44;6093484;23;45589;-87
2021/12/16 06:27:31;;;;;;;;;49.00;38.75;;;;;12.49;66.64;103328.19;6095024;23;45229;-83
2021/12/16 06:29:58;;;;;;;;;40.50;35.50;;;;;12.29;66.31;103294.50;6094296;23;45374;-84
2021/12/16 06:32:25;;;;;;;;;50.25;41.50;;;;;12.50;66.46;103328.13;6094986;23;45398;-83
2021/12/16 06:34:50;;;;;;;;;49.00;41.00;;;;;12.53;66.52;103313.88;6092355;23;45947;-86
2021/12/16 06:37:16;;;;;;;;;39.75;34.50;;;;;12.13;66.18;103245.63;6092559;23;45370;-87
2021/12/16 06:39:42;;;;;;;;;45.75;37.75;;;;;12.54;66.48;103313.84;6093287;23;45350;-88
2021/12/16 06:42:09;;;;;;;;;44.75;38.75;;;;;12.56;66.30;103317.38;6095011;23;45323;-84
2021/12/16 06:44:42;;;;;;;;;45.00;37.25;;;;;12.58;66.48;103323.63;6094538;23;45573;-84
2021/12/16 06:47:12;;;;;;;;;48.00;38.00;;;;;12.59;66.43;103321.81;6094483;23;45396;-86
2021/12/16 06:49:42;;;;;;;;;14.25;14.25;;;;;12.59;66.11;103314.66;6094503;23;45371;-86
2021/12/16 06:52:10;;;;;;;;;46.00;35.50;;;;;12.60;66.50;103326.28;6093687;23;45460;-85
2021/12/16 07:00:08;;;;;;;;;44.25;37.00;;;;;12.49;66.44;103304.09;6093769;23;45161;-84
2021/12/16 07:05:01;;;;;;;;;47.00;35.50;;;;;12.29;65.75;103277.56;6093758;23;45425;-84
2021/12/16 07:07:26;;;;;;;;;47.25;38.75;;;;;12.53;66.39;103316.56;6093479;23;45390;-84
2021/12/16 07:09:52;;;;;;;;;43.25;35.00;;;;;12.71;66.34;103336.84;6093298;23;45444;-86
2021/12/16 07:12:35;;;;;;;;;46.75;37.50;;;;;12.70;66.18;103338.66;6094548;23;45322;-87
2021/12/16 07:15:00;;;;;;;;;46.50;37.50;;;;;12.49;66.19;103306.78;6094293;23;45688;-87
2021/12/16 07:17:26;;;;;;;;;52.25;42.75;;;;;12.53;65.87;103314.75;6093897;23;45357;-88
2021/12/16 07:19:51;;;;;;;;;46.50;38.50;;;;;12.74;65.97;103352.91;6094854;23;45359;-84
2021/12/16 07:22:18;;;;;;;;;46.75;37.75;;;;;12.63;66.27;103327.13;6093386;23;45433;-83
2021/12/16 07:24:43;;;;;;;;;46.25;37.25;;;;;12.70;65.81;103330.63;6093868;23;45946;-82
2021/12/16 07:27:09;;;;;;;;;51.25;41.25;;;;;12.73;65.81;103337.72;6067551;23;45958;-82
2021/12/16 07:29:37;;;;;;;;;46.50;37.00;;;;;12.76;66.10;103348.38;6094287;23;45305;-84
2021/12/16 07:32:03;;;;;;;;;46.25;37.00;;;;;12.76;66.14;103348.38;6093470;23;45557;-83
2021/12/16 07:34:29;;;;;;;;;52.25;41.75;;;;;12.76;65.95;103351.97;6094060;23;45398;-83
2021/12/16 07:36:55;;;;;;;;;45.00;36.75;;;;;12.72;66.25;103346.66;6092801;23;45376;-83
2021/12/16 07:39:29;;;;;;;;;50.75;41.25;;;;;12.76;66.07;103354.66;6093812;23;45405;-83
2021/12/16 07:41:56;;;;;;;;;49.75;36.75;;;;;12.77;66.21;103348.38;6094010;23;45460;-83
2021/12/16 07:44:23;;;;;;;;;44.50;40.00;;;;;12.78;65.98;103351.94;6093210;23;46078;-80
2021/12/16 07:46:57;;;;;;;;;46.00;37.50;;;;;12.73;66.25;103345.75;6093435;23;45450;-83
2021/12/16 07:49:29;;;;;;;;;52.75;40.50;;;;;12.55;66.36;103317.41;6093844;23;45379;-82
2021/12/16 07:51:56;;;;;;;;;48.75;39.50;;;;;12.80;66.33;103353.69;6093799;23;45317;-81
2021/12/16 07:54:22;;;;;;;;;47.50;38.25;;;;;12.57;66.33;103307.56;6094240;23;46098;-81
2021/12/16 07:56:52;;;;;;;;;53.00;42.25;;;;;12.78;66.33;103343.91;6094255;23;45450;-81
2021/12/16 07:59:18;;;;;;;;;60.50;46.50;;;;;12.71;65.84;103334.19;6094108;23;45431;-81
2021/12/16 08:01:45;;;;;;;;;50.75;41.50;;;;;12.84;66.29;103362.59;6093132;23;45527;-81
2021/12/16 08:04:20;;;;;;;;;32.75;30.25;;;;;12.71;66.13;103344.88;6092896;23;46159;-81
2021/12/16 08:06:48;;;;;;;;;47.00;40.75;;;;;12.62;66.48;103319.13;6092879;23;45433;-81
2021/12/16 08:09:13;;;;;;;;;67.25;53.25;;;;;12.78;66.04;103358.19;6093623;23;45344;-81
2021/12/16 08:11:41;;;;;;;;;55.25;44.00;;;;;12.68;66.00;103332.41;6067715;23;45383;-81
2021/12/16 08:14:07;;;;;;;;;54.50;43.50;;;;;12.50;65.98;103309.41;6067065;23;46998;-81
2021/12/16 08:16:33;;;;;;;;;57.75;45.75;;;;;12.91;65.95;103375.00;6093488;23;45470;-81
2021/12/16 08:18:59;;;;;;;;;56.50;44.00;;;;;12.68;65.68;103340.44;6093345;23;45729;-81
2021/12/16 08:21:28;;;;;;;;;61.25;47.75;;;;;12.93;65.77;103381.22;6093054;23;45443;-81
2021/12/16 08:23:56;;;;;;;;;56.75;46.50;;;;;12.76;66.15;103348.38;6093382;23;45344;-81
2021/12/16 08:26:22;;;;;;;;;54.50;45.00;;;;;12.75;65.74;103344.81;6093430;23;45338;-81
2021/12/16 08:28:47;;;;;;;;;57.50;47.00;;;;;12.79;65.98;103353.72;6093552;23;45376;-81
2021/12/16 08:31:13;;;;;;;;;61.50;48.25;;;;;12.74;66.02;103350.22;6067506;23;45366;-81
2021/12/16 08:33:39;;;;;;;;;60.75;49.25;;;;;12.95;65.93;103389.25;6067234;23;48158;-81
2021/12/16 08:36:07;;;;;;;;;57.25;43.50;;;;;12.95;65.77;103383.91;6092930;23;45291;-81
2021/12/16 08:38:34;;;;;;;;;58.25;46.00;;;;;12.69;65.52;103339.56;6093429;23;45483;-81
2021/12/16 08:41:08;;;;;;;;;62.50;47.75;;;;;12.99;65.58;103390.97;6093761;23;45621;-81
2021/12/16 08:43:35;;;;;;;;;59.75;48.25;;;;;12.90;65.79;103370.56;6092850;23;46283;-81
2021/12/16 08:46:02;;;;;;;;;54.25;44.25;;;;;13.02;65.77;103393.63;6092994;23;45524;-81
2021/12/16 08:48:28;;;;;;;;;48.75;42.00;;;;;12.84;65.68;103365.25;6093109;23;45398;-81
2021/12/16 08:50:54;;;;;;;;;59.50;48.50;;;;;13.04;65.69;103397.16;6093095;23;45532;-81
2021/12/16 08:53:21;;;;;;;;;54.00;42.75;;;;;13.04;65.82;103400.72;6092684;23;45324;-81
2021/12/16 08:55:48;;;;;;;;;57.50;45.75;;;;;13.06;65.59;103401.59;6093441;23;45351;-81
2021/12/16 08:58:14;;;;;;;;;54.25;44.50;;;;;13.07;66.35;103402.50;6067109;23;45387;-81
2021/12/16 09:00:44;;;;;;;;;56.00;44.25;;;;;13.09;65.72;103403.38;6093573;23;45185;-81
2021/12/16 09:03:10;;;;;;;;;56.75;47.50;;;;;12.94;65.98;103380.31;6092229;23;46306;-81
2021/12/16 09:05:36;;;;;;;;;59.00;48.00;;;;;13.13;65.47;103404.19;6092369;23;45353;-81
2021/12/16 09:08:03;;;;;;;;;55.25;46.00;;;;;12.88;65.40;103373.25;6093062;23;45323;-81
2021/12/16 09:10:31;;;;;;;;;59.25;45.75;;;;;13.12;65.86;103407.78;6092762;23;45307;-81
2021/12/16 09:13:02;;;;;;;;;64.50;51.25;;;;;13.12;65.44;103413.16;6092652;23;45438;-81
2021/12/16 09:15:35;;;;;;;;;64.75;48.50;;;;;13.12;65.53;103415.81;6092917;23;45355;-81
2021/12/16 09:18:04;;;;;;;;;68.25;53.25;;;;;13.13;65.55;103412.22;6094490;23;45358;-81
2021/12/16 09:20:30;;;;;;;;;67.00;51.50;;;;;13.15;65.22;103419.34;6094111;23;45316;-81
2021/12/16 09:22:55;;;;;;;;;68.25;54.75;;;;;13.15;65.43;103419.34;6093907;23;46339;-81
2021/12/16 09:25:21;;;;;;;;;66.00;53.25;;;;;13.17;65.60;103424.69;6094386;23;46125;-81
2021/12/16 09:27:47;;;;;;;;;58.75;46.75;;;;;13.07;65.39;103406.03;6068633;23;45392;-81
2021/12/16 09:30:17;;;;;;;;;58.75;48.00;;;;;12.98;65.57;103392.75;6094899;23;45506;-81
2021/12/16 09:32:44;;;;;;;;;55.75;46.50;;;;;13.19;65.50;103423.75;6094253;23;46081;-81
2021/12/16 09:35:11;;;;;;;;;55.25;45.25;;;;;13.20;65.59;103425.53;6094625;23;45211;-81
2021/12/16 09:37:37;;;;;;;;;57.50;45.25;;;;;13.21;65.77;103429.13;6094007;23;45303;-81
2021/12/16 09:43:28;;;;;;;;;60.00;47.75;;;;;13.27;65.53;103434.38;6094050;23;45275;-81
2021/12/16 09:45:57;;;;;;;;;58.50;47.25;;;;;13.27;65.51;103443.34;6094182;23;45398;-81
2021/12/16 09:48:23;;;;;;;;;56.50;45.50;;;;;13.26;65.63;103446.88;6094185;23;45339;-81
2021/12/16 09:50:49;;;;;;;;;60.25;49.25;;;;;13.29;65.68;103446.88;6094690;23;45456;-81
2021/12/16 09:53:15;;;;;;;;;57.75;45.75;;;;;13.31;65.10;103444.19;6094104;23;45224;-81
2021/12/16 09:55:43;;;;;;;;;52.50;44.25;;;;;13.21;65.38;103429.13;6093245;23;45520;-81
2021/12/16 09:58:09;;;;;;;;;57.00;46.25;;;;;13.27;65.57;103446.03;6094390;23;45311;-81
2021/12/16 10:00:35;;;;;;;;;57.75;47.75;;;;;13.33;65.44;103458.47;6068331;23;45494;-81
2021/12/16 10:03:02;;;;;;;;;58.00;46.25;;;;;13.34;65.14;103454.84;6092943;23;46197;-81
2021/12/16 10:05:29;;;;;;;;;56.25;44.75;;;;;13.36;65.38;103454.84;6094375;23;45502;-81
2021/12/16 10:07:55;;;;;;;;;59.25;48.50;;;;;13.21;65.49;103423.75;6094488;23;45343;-81
2021/12/16 10:10:25;;;;;;;;;61.00;50.00;;;;;13.18;65.41;103419.31;6094655;23;45530;-81
2021/12/16 10:12:53;;;;;;;;;61.50;50.00;;;;;13.30;65.57;103446.00;6094294;23;46098;-83
2021/12/16 10:18:19;;;;;;;;;64.50;51.25;;;;;13.30;65.01;103427.25;6093881;23;45658;-82
2021/12/16 10:20:53;;;;;;;;;65.00;50.50;;;;;13.32;65.08;103432.56;6093545;23;45377;-83
2021/12/16 10:23:31;;;;;;;;;64.75;51.25;;;;;13.43;65.41;103453.88;6094098;23;45380;-82
2021/12/16 10:25:58;;;;;;;;;61.00;49.25;;;;;13.25;65.79;103434.41;6068176;23;45304;-83
2021/12/16 10:28:28;;;;;;;;;62.00;50.00;;;;;13.44;65.76;103461.91;6093199;23;45302;-83
2021/12/16 10:31:23;;;;;;;;;62.75;50.50;;;;;13.36;65.29;103442.34;6094009;23;45311;-82
2021/12/16 10:33:54;;;;;;;;;63.25;51.00;;;;;13.50;65.36;103463.59;6067720;23;48202;-83
2021/12/16 10:36:29;;;;;;;;;64.50;50.25;;;;;13.48;65.43;103463.63;6094104;23;45350;-83
2021/12/16 10:39:08;;;;;;;;;55.25;45.25;;;;;13.51;65.28;103452.00;6065714;23;45405;-91
2021/12/16 10:41:38;;;;;;;;;58.50;45.50;;;;;13.51;65.89;103458.25;6092977;23;45338;-91
2021/12/16 10:44:09;;;;;;;;;63.50;50.50;;;;;13.48;65.77;103447.53;6093999;23;45366;-86
2021/12/16 10:46:40;;;;;;;;;58.50;46.75;;;;;13.36;65.26;103420.91;6067083;23;45679;-86
2021/12/16 10:49:13;;;;;;;;;58.25;47.25;;;;;13.34;65.59;103420.03;6094151;23;45359;-86
2021/12/16 10:51:42;;;;;;;;;55.75;44.50;;;;;13.59;65.38;103447.41;6093252;23;45387;-89
2021/12/16 10:54:07;;;;;;;;;59.50;47.75;;;;;13.61;65.03;103442.03;6093649;23;45990;-85
2021/12/16 10:56:40;;;;;;;;;51.75;42.75;;;;;13.64;65.15;103442.88;6093724;23;45194;-86
2021/12/16 10:59:26;;;;;;;;;53.50;42.00;;;;;13.49;65.33;103419.84;6093808;23;45388;-84
2021/12/16 11:01:56;;;;;;;;;48.75;41.25;;;;;13.70;64.88;103441.94;6091979;23;45493;-84
2021/12/16 11:04:50;;;;;;;;;59.75;48.25;;;;;13.63;65.11;103421.47;6092680;23;46399;-82
2021/12/16 11:07:24;;;;;;;;;60.50;49.00;;;;;13.76;64.63;103433.78;6093668;23;45468;-87
2021/12/16 11:09:52;;;;;;;;;59.00;47.25;;;;;13.81;64.95;103441.75;6093031;23;45275;-87
2021/12/16 11:12:26;;;;;;;;;58.25;44.25;;;;;13.82;64.67;103441.75;6093826;23;45310;-87
2021/12/16 11:15:22;;;;;;;;;50.25;43.25;;;;;13.84;64.01;103445.28;6092624;23;46157;-89
2021/12/16 11:17:53;;;;;;;;;52.50;42.25;;;;;13.86;64.64;103446.16;6092798;23;45431;-87
2021/12/16 11:20:47;;;;;;;;;59.00;45.25;;;;;13.87;64.58;103444.38;6093531;23;45411;-87
2021/12/16 11:23:20;;;;;;;;;58.00;46.75;;;;;13.90;64.29;103447.00;6091055;23;45300;-87
2021/12/16 11:25:54;;;;;;;;;43.00;37.67;;;;;13.94;63.51;103448.72;6092385;23;45418;-87
2021/12/16 11:28:31;;;;;;;;;44.00;40.67;;;;;13.98;63.49;103449.56;6092956;23;45328;-88
2021/12/16 11:31:00;;;;;;;;;40.33;36.67;;;;;13.93;63.47;103433.56;6092483;23;45467;-88
2021/12/16 11:33:40;;;;;;;;;37.67;33.00;;;;;13.78;63.77;103402.47;6093680;23;45406;-88
2021/12/16 11:36:09;;;;;;;;;36.33;33.33;;;;;14.08;62.50;103440.47;6093485;23;45331;-88
2021/12/16 11:38:43;;;;;;;;;28.67;28.00;;;;;14.12;62.27;103440.41;6093092;23;45678;-88
2021/12/16 11:41:20;;;;;;;;;31.67;29.00;;;;;14.16;61.34;103441.25;6093537;23;45355;-87
2021/12/16 11:43:45;;;;;;;;;39.33;30.67;;;;;14.19;60.78;103446.56;6093406;23;45367;-88
2021/12/16 11:46:29;;;;;;;;;28.00;21.67;;;;;14.13;60.45;103427.88;6092715;23;46275;-88
2021/12/16 11:48:58;;;;;;;;;30.00;25.00;;;;;14.26;60.43;103436.63;6093063;23;45437;-88
2021/12/16 11:51:28;;;;;;;;;29.67;26.33;;;;;14.28;61.36;103434.78;6093934;23;45374;-88
2021/12/16 11:53:58;;;;;;;;;21.33;21.33;;;;;14.20;60.25;103415.25;6093833;23;45324;-87
2021/12/16 11:56:42;;;;;;;;;27.67;24.33;;;;;14.17;60.67;103410.84;6093881;23;46218;-87
2021/12/16 11:59:09;;;;;;;;;30.67;24.67;;;;;14.36;60.59;103438.25;6093334;23;45370;-88
2021/12/16 12:01:39;;;;;;;;;32.00;29.00;;;;;14.37;60.06;103434.66;6093631;23;45477;-87
2021/12/16 12:04:09;;;;;;;;;30.67;28.33;;;;;14.43;60.74;103433.69;6094472;23;45327;-87
2021/12/16 12:06:36;;;;;;;;;29.33;25.33;;;;;14.36;60.86;103422.16;6093305;23;48232;-87
2021/12/16 12:09:05;;;;;;;;;31.00;29.67;;;;;14.45;60.83;103440.78;6093423;23;45295;-87
2021/12/16 12:11:34;;;;;;;;;33.67;29.00;;;;;14.40;60.88;103425.66;6094012;23;45332;-87
2021/12/16 12:14:13;;;;;;;;;31.33;25.00;;;;;14.45;60.21;103429.19;6066911;23;45499;-87
2021/12/16 12:16:42;;;;;;;;;33.33;26.33;;;;;14.31;61.12;103400.75;6093137;23;45464;-88
2021/12/16 12:19:10;;;;;;;;;29.00;24.33;;;;;14.49;60.30;103428.19;6093546;23;45338;-87
2021/12/16 12:21:58;;;;;;;;;28.00;26.00;;;;;14.53;60.21;103429.91;6093381;23;45316;-88
2021/12/16 12:24:32;;;;;;;;;26.67;26.67;;;;;14.38;60.58;103401.56;6094191;23;45422;-88
2021/12/16 12:27:19;;;;;;;;;25.00;21.67;;;;;14.51;61.12;103421.88;6092759;23;45387;-88
2021/12/16 12:29:48;;;;;;;;;24.33;24.00;;;;;14.44;60.59;103412.16;6093563;23;45485;-87
2021/12/16 12:32:21;;;;;;;;;25.67;24.33;;;;;14.55;59.17;103422.75;6093873;23;45355;-88
2021/12/16 12:35:01;;;;;;;;;26.00;24.67;;;;;14.57;60.23;103419.13;6093731;23;45413;-88
2021/12/16 12:37:28;;;;;;;;;21.00;21.00;;;;;14.47;60.02;103397.81;6093684;23;45335;-88
2021/12/16 12:40:23;;;;;;;;;27.67;21.67;;;;;14.53;60.51;103416.50;6092619;23;45425;-87
2021/12/16 12:42:51;;;;;;;;;23.67;23.67;;;;;14.60;59.86;103422.69;6090823;23;45324;-88
2021/12/16 12:45:19;;;;;;;;;27.33;24.00;;;;;14.61;59.79;103419.06;6093990;23;45395;-88
2021/12/16 12:47:49;;;;;;;;;27.33;23.67;;;;;14.40;60.02;103380.03;6093008;23;45379;-87
2021/12/16 12:50:22;;;;;;;;;27.33;25.33;;;;;14.30;59.95;103369.47;6093232;23;45440;-87
2021/12/16 12:52:51;;;;;;;;;22.67;22.00;;;;;14.40;60.23;103380.94;6094830;23;45297;-87
2021/12/16 12:55:23;;;;;;;;;22.33;19.00;;;;;14.59;60.29;103413.75;6094851;23;45306;-87
2021/12/16 12:57:48;;;;;;;;;24.00;23.67;;;;;14.50;59.55;103395.97;6094159;23;45430;-87
2021/12/16 13:00:34;;;;;;;;;25.33;23.33;;;;;14.57;60.09;103411.06;6068509;23;45503;-87
2021/12/16 13:03:12;;;;;;;;;22.33;21.00;;;;;14.57;59.87;103410.19;6094053;23;45350;-87
2021/12/16 13:05:38;;;;;;;;;28.00;23.33;;;;;14.57;59.89;103411.06;6094438;23;45332;-87
2021/12/16 13:08:07;;;;;;;;;15.00;14.33;;;;;14.52;60.04;103395.94;6094717;23;45433;-87
2021/12/16 13:10:41;;;;;;;;;16.33;16.33;;;;;14.57;58.93;103403.03;6094449;23;45297;-87
2021/12/16 13:16:12;;;;;;;;;20.67;19.00;;;;;14.59;58.24;103397.66;6095012;23;45228;-87
2021/12/16 13:24:42;;;;;;;;;19.00;18.33;;;;;14.57;59.01;103394.97;6094742;23;45410;-87
2021/12/16 13:27:21;;;;;;;;;19.33;18.33;;;;;14.26;59.09;103340.94;6095001;23;45376;-87
2021/12/16 13:30:06;;;;;;;;;22.33;18.67;;;;;14.51;58.91;103378.94;6093873;23;45597;-87
2021/12/16 13:32:42;;;;;;;;;22.67;20.67;;;;;14.53;59.31;103378.91;6094436;23;45100;-87
2021/12/16 13:37:39;;;;;;;;;22.33;20.00;;;;;14.60;59.71;103393.16;6093395;23;45451;-87
2021/12/16 13:40:13;;;;;;;;;22.33;21.67;;;;;14.58;59.54;103385.13;6093781;23;45370;-85
2021/12/16 13:43:02;;;;;;;;;19.33;17.00;;;;;14.57;59.81;103380.69;6094607;23;45398;-87
2021/12/16 13:45:46;;;;;;;;;20.33;19.00;;;;;14.58;59.68;103382.44;6094691;23;45315;-87
2021/12/16 14:02:49;;;;;;;;;19.33;17.00;;;;;14.48;58.19;103375.44;6093788;23;45342;-87
2021/12/16 14:05:39;;;;;;;;;23.00;20.00;;;;;14.53;59.14;103389.66;6067915;23;46024;-87
2021/12/16 14:08:08;;;;;;;;;21.67;19.67;;;;;14.51;58.63;103386.09;6094048;23;45355;-87
2021/12/16 14:10:52;;;;;;;;;26.67;21.00;;;;;14.50;57.94;103390.59;6095104;23;45335;-87
2021/12/16 14:25:30;;;;;;;;;24.00;22.00;;;;;14.46;58.72;103380.81;6093885;23;45283;-87
2021/12/16 14:41:46;;;;;;;;;22.33;21.67;;;;;14.39;59.41;103383.66;6095122;23;45297;-81
2021/12/16 14:46:43;;;;;;;;;28.00;24.67;;;;;14.39;59.58;103383.66;6091682;23;45972;-81
2021/12/16 14:49:08;;;;;;;;;31.00;27.00;;;;;14.23;59.62;103366.91;6094058;23;45374;-81
2021/12/16 14:51:33;;;;;;;;;25.00;22.67;;;;;14.38;60.06;103392.63;6093831;23;45368;-83
2021/12/16 14:53:59;;;;;;;;;25.33;23.33;;;;;14.14;59.95;103360.81;6094738;23;45530;-81